Boca Grande, Florida
Current Conditions -  °F | °C
As of 11:53 PM on Wednesday 22 Oct 2014 (Local Time) from KPGD Reporting Station
Clear Clear  
Wind Chill: 74°   Ceiling: Unl
Heat Index: 74°   Visibility: 10mi
Dew Point: 67°   Wind: 9mph
Humidity: 79%   Direction: 60°ENE
Pressure: 29.97"   Gusts: NA
Location:  26.75°N, 82.26°W
Report Text: KPGD 230353Z AUTO 06008KT 10SM CLR 23/19 A2997 RMK AO2 SLP149 T02330194
Loading
Personal Weather Stations






























Interactive Weather Map
Tropical Storm Tracking
New forecast layout! Learn more

10-Day Weather Forecast

Advertisements
Track Severe Weather on mobile